Time;durP1;ratioP1;P1;durP2;ratioP2;P2;SDS_P1;SDS_P2;PMS_P1;PMS_P2;Temp;Humidity;BMP_temperature;BMP_pressure;BME280_temperature;BME280_humidity;BME280_pressure;Samples;Min_cycle;Max_cycle;Signal;HPM_P1;HPM_P2
2022/08/10 08:49:11;;;;;;;21.02;3.42;;;;;;;;;;1782428;80;20827;-72
2022/08/10 08:51:53;;;;;;;5.28;2.10;;;;;;;;;;1782133;80;21415;-76
2022/08/10 08:54:37;;;;;;;10.75;2.20;;;;;;;;;;1774088;80;20941;-67
2022/08/10 08:57:19;;;;;;;9.50;2.70;;;;;;;;;;1782544;80;20965;-75
2022/08/10 09:00:12;;;;;;;4.00;1.80;;;;;;;;;;1782308;80;21152;-69
2022/08/10 09:02:48;;;;;;;4.62;2.35;;;;;;;;;;1782401;80;20866;-73
2022/08/10 09:05:46;;;;;;;4.50;2.72;;;;;;;;;;1781996;80;20866;-72
2022/08/10 09:08:16;;;;;;;12.13;3.10;;;;;;;;;;1781927;80;20953;-75
2022/08/10 09:11:01;;;;;;;4.55;2.40;;;;;;;;;;1714949;83;21544;-73
2022/08/10 09:13:32;;;;;;;4.70;2.67;;;;;;;;;;1715418;83;21098;-73
2022/08/10 09:16:26;;;;;;;5.47;2.27;;;;;;;;;;1657486;86;20883;-75
2022/08/10 09:19:18;;;;;;;4.28;2.25;;;;;;;;;;1657681;86;20994;-74
2022/08/10 09:22:04;;;;;;;4.53;2.72;;;;;;;;;;1657068;86;20986;-73
2022/08/10 09:24:37;;;;;;;4.62;3.40;;;;;;;;;;1657614;86;21148;-75
2022/08/10 09:27:14;;;;;;;9.20;2.90;;;;;;;;;;1657379;86;22133;-74
2022/08/10 09:29:44;;;;;;;7.12;2.92;;;;;;;;;;1657063;86;21032;-74
2022/08/10 09:32:14;;;;;;;6.78;3.10;;;;;;;;;;1633769;86;21074;-75
2022/08/10 09:35:06;;;;;;;4.40;3.00;;;;;;;;;;1657546;86;20966;-73
2022/08/10 09:37:46;;;;;;;8.75;3.02;;;;;;;;;;1657556;86;21519;-74
2022/08/10 09:40:19;;;;;;;5.15;2.52;;;;;;;;;;1657879;86;21519;-73
2022/08/10 09:42:50;;;;;;;9.38;2.60;;;;;;;;;;1657241;86;21580;-76
2022/08/10 09:45:40;;;;;;;8.00;2.37;;;;;;;;;;1659124;85;20910;-73
2022/08/10 09:48:16;;;;;;;2.65;2.00;;;;;;;;;;1696343;83;21460;-72
2022/08/10 09:51:07;;;;;;;4.12;2.30;;;;;;;;;;1711622;83;20995;-69
2022/08/10 09:53:44;;;;;;;2.12;1.82;;;;;;;;;;1760207;79;21576;-71
2022/08/10 09:56:26;;;;;;;3.83;2.05;;;;;;;;;;1801611;79;21381;-72
2022/08/10 09:59:20;;;;;;;4.40;1.77;;;;;;;;;;1801307;79;20907;-76
2022/08/10 10:02:05;;;;;;;4.70;2.55;;;;;;;;;;1801862;79;20903;-75
2022/08/10 10:04:55;;;;;;;7.15;2.52;;;;;;;;;;1801618;79;20918;-72
2022/08/10 10:07:28;;;;;;;5.10;2.00;;;;;;;;;;1801358;79;21101;-75
2022/08/10 10:10:25;;;;;;;5.60;2.30;;;;;;;;;;1801088;79;20938;-73
2022/08/10 10:12:57;;;;;;;3.55;2.50;;;;;;;;;;1801729;79;20947;-71
2022/08/10 10:15:36;;;;;;;1.77;1.67;;;;;;;;;;1801618;79;21433;-73
2022/08/10 10:18:23;;;;;;;4.58;1.75;;;;;;;;;;1801655;79;20958;-76
2022/08/10 10:21:25;;;;;;;3.30;1.72;;;;;;;;;;1801441;79;21506;-72
2022/08/10 10:23:58;;;;;;;2.75;1.60;;;;;;;;;;1801790;79;21421;-73
2022/08/10 10:26:48;;;;;;;3.30;2.20;;;;;;;;;;1801639;79;21469;-74
2022/08/10 10:29:31;;;;;;;10.25;3.62;;;;;;;;;;1801857;79;21453;-74
2022/08/10 10:32:17;;;;;;;2.98;2.15;;;;;;;;;;1801637;79;20860;-76
2022/08/10 10:35:04;;;;;;;7.08;2.90;;;;;;;;;;1801634;79;21204;-76
2022/08/10 10:37:31;;;;;;;5.53;2.35;;;;;;;;;;1779602;80;21047;-74
2022/08/10 10:40:00;;;;;;;6.97;3.17;;;;;;;;;;1779615;80;20900;-72
2022/08/10 10:42:53;;;;;;;5.92;2.95;;;;;;;;;;1779384;80;20889;-75
2022/08/10 10:45:47;;;;;;;3.37;2.30;;;;;;;;;;1776273;80;20873;-74
2022/08/10 10:48:26;;;;;;;6.35;3.00;;;;;;;;;;1747946;81;21176;-76
2022/08/10 10:51:14;;;;;;;2.05;1.65;;;;;;;;;;1748317;82;20900;-74
2022/08/10 10:53:44;;;;;;;2.72;1.92;;;;;;;;;;1747866;82;20876;-71
2022/08/10 10:56:23;;;;;;;5.10;1.70;;;;;;;;;;1748182;80;20927;-76
2022/08/10 10:59:14;;;;;;;3.50;2.02;;;;;;;;;;1747756;82;21383;-75
2022/08/10 11:01:56;;;;;;;2.40;2.08;;;;;;;;;;1747869;81;21806;-74
2022/08/10 11:04:26;;;;;;;3.33;1.70;;;;;;;;;;1748091;82;20936;-73
2022/08/10 11:07:13;;;;;;;5.25;2.10;;;;;;;;;;1747867;82;20997;-72
2022/08/10 11:10:06;;;;;;;2.10;1.90;;;;;;;;;;1747599;81;21730;-73
2022/08/10 11:12:57;;;;;;;3.45;2.22;;;;;;;;;;1747900;81;21533;-76
2022/08/10 11:15:44;;;;;;;3.83;2.20;;;;;;;;;;1775253;80;21506;-75
2022/08/10 11:18:13;;;;;;;;;;;;;;;;;;1756571;80;20917;-74
2022/08/10 11:20:43;;;;;;;2.77;2.20;;;;;;;;;;1782045;80;20092;-73
2022/08/10 11:23:25;;;;;;;3.42;2.12;;;;;;;;;;1782227;80;20909;-73
2022/08/10 12:11:39;;;;;;;2.08;1.87;;;;;;;;;;1672038;85;21403;-72
2022/08/10 12:14:34;;;;;;;4.15;2.25;;;;;;;;;;1671810;85;20996;-72
2022/08/10 12:17:09;;;;;;;4.28;2.55;;;;;;;;;;1674770;85;21918;-72
2022/08/10 12:19:38;;;;;;;3.42;1.85;;;;;;;;;;1675888;85;20975;-71
2022/08/10 12:22:07;;;;;;;5.78;2.15;;;;;;;;;;1675332;85;20976;-73
2022/08/10 12:24:58;;;;;;;3.98;1.95;;;;;;;;;;1675912;85;21011;-73
2022/08/10 12:27:34;;;;;;;3.20;2.40;;;;;;;;;;1675276;85;20916;-74
2022/08/10 12:30:09;;;;;;;3.72;2.00;;;;;;;;;;1676251;85;21114;-73
2022/08/10 12:32:50;;;;;;;6.08;2.20;;;;;;;;;;1675908;85;21003;-76
2022/08/10 12:35:54;;;;;;;5.92;3.00;;;;;;;;;;1675959;85;21032;-74
2022/08/10 12:38:47;;;;;;;7.50;3.05;;;;;;;;;;1680416;85;21428;-76
2022/08/10 12:41:20;;;;;;;4.85;3.00;;;;;;;;;;1680635;85;20959;-74
2022/08/10 12:44:15;;;;;;;4.67;3.02;;;;;;;;;;1680213;85;21903;-72
2022/08/10 12:46:51;;;;;;;3.42;2.52;;;;;;;;;;1678129;85;21206;-76
2022/08/10 12:49:38;;;;;;;8.30;3.55;;;;;;;;;;1644828;87;20980;-73
2022/08/10 12:52:09;;;;;;;10.63;5.00;;;;;;;;;;1645023;87;20996;-75
2022/08/10 12:54:36;;;;;;;4.60;2.92;;;;;;;;;;1644897;87;20984;-74
2022/08/10 12:57:11;;;;;;;2.92;1.90;;;;;;;;;;1645379;87;21163;-71
2022/08/10 12:59:46;;;;;;;5.25;2.08;;;;;;;;;;1644749;87;20972;-72
2022/08/10 13:02:22;;;;;;;5.33;2.92;;;;;;;;;;1645165;87;20973;-73
2022/08/10 13:04:50;;;;;;;6.92;3.22;;;;;;;;;;1644762;87;21525;-75
2022/08/10 13:07:28;;;;;;;9.38;3.87;;;;;;;;;;1657637;84;21453;-75
2022/08/10 13:10:07;;;;;;;4.20;2.77;;;;;;;;;;1712461;83;21283;-75
2022/08/10 13:12:39;;;;;;;3.17;1.90;;;;;;;;;;1746363;82;21531;-76
2022/08/10 13:15:22;;;;;;;3.70;2.10;;;;;;;;;;1725755;82;21509;-75
2022/08/10 13:17:50;;;;;;;3.98;2.77;;;;;;;;;;1725984;82;20897;-75
2022/08/10 13:20:29;;;;;;;4.78;2.45;;;;;;;;;;1725632;83;21522;-74
2022/08/10 13:22:57;;;;;;;3.65;2.62;;;;;;;;;;1725792;83;21819;-73
2022/08/10 13:25:29;;;;;;;6.05;2.80;;;;;;;;;;1725600;82;21028;-75
2022/08/10 13:28:00;;;;;;;3.22;2.50;;;;;;;;;;1725637;82;21493;-73
2022/08/10 13:30:26;;;;;;;2.62;2.25;;;;;;;;;;1725641;83;20929;-74
2022/08/10 13:32:53;;;;;;;5.60;3.02;;;;;;;;;;1726018;83;20955;-73
2022/08/10 13:35:20;;;;;;;3.52;2.70;;;;;;;;;;1725504;82;21783;-73
2022/08/10 13:37:47;;;;;;;4.20;2.67;;;;;;;;;;1725827;83;20940;-70
2022/08/10 13:40:17;;;;;;;2.85;2.00;;;;;;;;;;1725637;83;20971;-74
2022/08/10 13:42:44;;;;;;;3.90;2.25;;;;;;;;;;1725658;83;20937;-74
2022/08/10 13:45:13;;;;;;;2.00;1.70;;;;;;;;;;1726371;82;20937;-74
2022/08/10 13:47:41;;;;;;;3.70;2.30;;;;;;;;;;1740905;82;22028;-72
2022/08/10 13:50:10;;;;;;;2.93;2.63;;;;;;;;;;1741651;82;20972;-74
2022/08/10 13:52:37;;;;;;;4.35;2.30;;;;;;;;;;1741443;82;20967;-75
2022/08/10 13:55:11;;;;;;;6.62;2.47;;;;;;;;;;1741894;82;21435;-74
2022/08/10 13:57:37;;;;;;;19.48;2.95;;;;;;;;;;1741294;82;20984;-75
2022/08/10 14:00:06;;;;;;;48.10;6.33;;;;;;;;;;1741679;82;21052;-75
2022/08/10 14:02:59;;;;;;;8.25;2.40;;;;;;;;;;1741534;82;20910;-74
2022/08/10 14:05:33;;;;;;;8.10;2.40;;;;;;;;;;1741871;82;20952;-75
2022/08/10 14:08:00;;;;;;;20.55;3.60;;;;;;;;;;1741424;82;20924;-75
2022/08/10 14:10:30;;;;;;;2.65;1.85;;;;;;;;;;1747400;82;20995;-74
2022/08/10 14:12:56;;;;;;;1.72;1.62;;;;;;;;;;1741585;82;21128;-76
2022/08/10 14:15:28;;;;;;;6.10;2.00;;;;;;;;;;1742120;82;20920;-75
2022/08/10 14:17:56;;;;;;;10.98;2.20;;;;;;;;;;1741519;82;20929;-77
2022/08/10 14:20:28;;;;;;;3.60;1.80;;;;;;;;;;1742063;82;20877;-75
2022/08/10 14:23:01;;;;;;;1.92;1.70;;;;;;;;;;1739679;82;21019;-72
2022/08/10 14:25:28;;;;;;;2.37;2.00;;;;;;;;;;1733318;82;21314;-73
2022/08/10 14:27:54;;;;;;;1.67;1.43;;;;;;;;;;1741984;82;21011;-74
2022/08/10 14:30:21;;;;;;;2.77;1.72;;;;;;;;;;1742028;82;20925;-75
2022/08/10 14:32:47;;;;;;;5.95;2.80;;;;;;;;;;1741700;82;20941;-74
2022/08/10 14:35:15;;;;;;;3.55;3.10;;;;;;;;;;1741997;82;21003;-74
2022/08/10 14:37:45;;;;;;;7.80;5.17;;;;;;;;;;1741484;82;21132;-76
2022/08/10 14:40:14;;;;;;;8.65;6.22;;;;;;;;;;1734475;82;20916;-77
2022/08/10 14:43:01;;;;;;;4.65;3.52;;;;;;;;;;1741382;82;20924;-76
2022/08/10 14:45:34;;;;;;;3.27;3.02;;;;;;;;;;1739057;82;20980;-77
2022/08/10 14:48:15;;;;;;;4.22;2.47;;;;;;;;;;1725934;83;20878;-75
2022/08/10 14:50:42;;;;;;;2.70;1.62;;;;;;;;;;1725060;82;21933;-75
2022/08/10 14:53:19;;;;;;;2.75;1.70;;;;;;;;;;1725866;83;20957;-75
2022/08/10 14:56:03;;;;;;;3.87;1.85;;;;;;;;;;1725767;83;20893;-75
2022/08/10 14:58:39;;;;;;;6.67;1.50;;;;;;;;;;1726103;83;20928;-76
2022/08/10 15:01:06;;;;;;;3.27;2.35;;;;;;;;;;1714949;83;20909;-75
2022/08/10 15:03:35;;;;;;;23.30;8.08;;;;;;;;;;1725870;82;21507;-74
2022/08/10 15:06:10;;;;;;;10.65;5.78;;;;;;;;;;1715005;83;21466;-75
2022/08/10 15:08:37;;;;;;;7.53;4.95;;;;;;;;;;1726253;83;20968;-73
2022/08/10 15:11:04;;;;;;;6.30;4.72;;;;;;;;;;1726099;83;20893;-73
2022/08/10 15:13:31;;;;;;;17.93;3.47;;;;;;;;;;1726066;82;20884;-73
2022/08/10 15:15:58;;;;;;;5.95;2.90;;;;;;;;;;1726224;82;21151;-74
2022/08/10 15:18:25;;;;;;;7.72;3.87;;;;;;;;;;1725742;82;25623;-76
2022/08/10 15:20:54;;;;;;;8.18;7.37;;;;;;;;;;1715921;83;20908;-77
2022/08/10 15:23:20;;;;;;;6.60;5.12;;;;;;;;;;1725796;82;20916;-75
2022/08/10 15:25:47;;;;;;;14.23;9.20;;;;;;;;;;1725726;83;20991;-75
2022/08/10 15:28:16;;;;;;;;;;;;;;;;;;1742128;82;21821;-76
